Time;durP1;ratioP1;P1;durP2;ratioP2;P2;SDS_P1;SDS_P2;PMS_P1;PMS_P2;Temp;Humidity;BMP_temperature;BMP_pressure;BME280_temperature;BME280_humidity;BME280_pressure;Samples;Min_cycle;Max_cycle;Signal;HPM_P1;HPM_P2
2021/05/05 00:00:16;;;;;;;6.80;4.65;;;;;;;;;;1493243;39;20032;-59
2021/05/05 00:01:17;;;;;;;7.07;4.25;;;;;;;;;;1493349;39;20024;-59
2021/05/05 00:02:18;;;;;;;6.07;4.28;;;;;;;;;;1493144;39;20032;-58
2021/05/05 00:03:20;;;;;;;7.47;4.38;;;;;;;;;;1493048;39;20039;-58
2021/05/05 00:04:21;;;;;;;8.75;4.70;;;;;;;;;;1493106;39;20024;-58
2021/05/05 00:05:23;;;;;;;9.23;4.80;;;;;;;;;;1493133;39;20051;-58
2021/05/05 00:06:24;;;;;;;6.55;4.38;;;;;;;;;;1493030;39;20406;-58
2021/05/05 00:07:25;;;;;;;7.90;4.30;;;;;;;;;;1493127;39;20035;-58
2021/05/05 00:08:26;;;;;;;8.18;4.38;;;;;;;;;;1493217;39;20040;-58
2021/05/05 00:09:27;;;;;;;5.72;4.15;;;;;;;;;;1492914;39;20035;-59
2021/05/05 00:10:28;;;;;;;5.95;4.35;;;;;;;;;;1493232;39;20031;-59
2021/05/05 00:11:30;;;;;;;6.13;4.45;;;;;;;;;;1493195;39;20038;-57
2021/05/05 00:12:31;;;;;;;9.05;4.40;;;;;;;;;;1493083;39;20034;-58
2021/05/05 00:13:32;;;;;;;6.13;4.47;;;;;;;;;;1493217;39;20116;-58
2021/05/05 00:14:33;;;;;;;5.68;4.20;;;;;;;;;;1493033;39;20032;-58
2021/05/05 00:15:34;;;;;;;6.97;4.70;;;;;;;;;;1492964;39;20120;-58
2021/05/05 00:16:35;;;;;;;5.82;4.15;;;;;;;;;;1493072;39;20031;-59
2021/05/05 00:17:38;;;;;;;8.35;4.65;;;;;;;;;;1493208;39;20036;-59
2021/05/05 00:18:40;;;;;;;6.43;3.97;;;;;;;;;;1492961;39;20024;-60
2021/05/05 00:19:41;;;;;;;6.03;4.28;;;;;;;;;;1493271;39;20030;-58
2021/05/05 00:20:42;;;;;;;5.32;4.20;;;;;;;;;;1493016;39;20391;-58
2021/05/05 00:21:44;;;;;;;9.30;4.90;;;;;;;;;;1493215;39;20036;-58
2021/05/05 00:22:45;;;;;;;6.90;4.43;;;;;;;;;;1492987;39;20272;-58
2021/05/05 00:23:46;;;;;;;6.72;4.45;;;;;;;;;;1493272;39;20113;-58
2021/05/05 00:24:47;;;;;;;6.80;4.25;;;;;;;;;;1492976;39;20303;-59
2021/05/05 00:25:49;;;;;;;7.47;4.50;;;;;;;;;;1493131;39;20024;-59
2021/05/05 00:26:55;;;;;;;6.85;4.22;;;;;;;;;;1493202;39;20140;-59
2021/05/05 00:27:56;;;;;;;6.80;4.05;;;;;;;;;;1493184;39;20028;-59
2021/05/05 00:28:57;;;;;;;6.75;4.38;;;;;;;;;;1492889;39;20415;-58
2021/05/05 00:29:58;;;;;;;7.05;4.57;;;;;;;;;;1493165;39;20036;-58
2021/05/05 00:30:59;;;;;;;7.68;4.70;;;;;;;;;;1493005;39;20410;-58
2021/05/05 00:32:06;;;;;;;7.25;4.47;;;;;;;;;;1492457;39;20387;-57
2021/05/05 00:33:06;;;;;;;9.70;4.28;;;;;;;;;;1492750;39;20039;-58
2021/05/05 00:34:09;;;;;;;6.55;4.35;;;;;;;;;;1493130;39;20064;-59
2021/05/05 00:35:10;;;;;;;6.60;4.32;;;;;;;;;;1493157;39;20029;-59
2021/05/05 00:36:12;;;;;;;5.93;4.57;;;;;;;;;;1492991;39;20421;-59
2021/05/05 00:37:13;;;;;;;8.27;4.55;;;;;;;;;;1493185;39;20038;-58
2021/05/05 00:38:14;;;;;;;6.50;5.05;;;;;;;;;;1493009;39;20035;-58
2021/05/05 00:39:15;;;;;;;6.43;4.85;;;;;;;;;;1493152;39;20043;-58
2021/05/05 00:40:16;;;;;;;7.40;4.93;;;;;;;;;;1493130;39;20028;-58
2021/05/05 00:41:18;;;;;;;5.80;4.15;;;;;;;;;;1493131;39;20038;-58
2021/05/05 00:42:20;;;;;;;8.15;4.60;;;;;;;;;;1492984;39;20132;-58
2021/05/05 00:43:21;;;;;;;7.22;4.43;;;;;;;;;;1493218;39;20032;-59
2021/05/05 00:44:24;;;;;;;6.30;4.65;;;;;;;;;;1493058;39;20036;-59
2021/05/05 00:45:25;;;;;;;6.43;4.50;;;;;;;;;;1492952;39;20299;-58
2021/05/05 00:46:26;;;;;;;8.40;4.57;;;;;;;;;;1492941;39;20028;-58
2021/05/05 00:47:27;;;;;;;7.47;4.57;;;;;;;;;;1493071;39;20024;-58
2021/05/05 00:48:29;;;;;;;7.68;4.82;;;;;;;;;;1492981;39;20028;-58
2021/05/05 00:49:30;;;;;;;5.88;4.50;;;;;;;;;;1492832;39;20036;-59
2021/05/05 00:50:32;;;;;;;6.70;4.53;;;;;;;;;;1493057;39;20055;-58
2021/05/05 00:51:33;;;;;;;5.22;4.40;;;;;;;;;;1492954;39;20032;-58
2021/05/05 00:52:35;;;;;;;5.35;4.82;;;;;;;;;;1492410;39;20031;-58
2021/05/05 00:53:36;;;;;;;8.13;4.95;;;;;;;;;;1492904;39;20295;-59
2021/05/05 00:54:37;;;;;;;5.90;4.70;;;;;;;;;;1493110;39;20028;-59
2021/05/05 00:55:38;;;;;;;8.45;4.45;;;;;;;;;;1493065;39;20039;-58
2021/05/05 00:56:39;;;;;;;10.63;4.93;;;;;;;;;;1492926;39;20089;-58
2021/05/05 00:57:41;;;;;;;6.68;4.07;;;;;;;;;;1493038;39;20115;-58
2021/05/05 00:58:42;;;;;;;8.57;4.43;;;;;;;;;;1492873;39;20044;-60
2021/05/05 00:59:43;;;;;;;7.70;4.30;;;;;;;;;;1492898;39;20032;-59
2021/05/05 01:00:46;;;;;;;8.35;4.55;;;;;;;;;;1492922;39;20028;-58
2021/05/05 01:01:47;;;;;;;7.55;4.60;;;;;;;;;;1492902;39;20028;-59
2021/05/05 01:02:48;;;;;;;6.72;4.40;;;;;;;;;;1492883;39;20032;-58
2021/05/05 01:03:49;;;;;;;6.55;3.90;;;;;;;;;;1493086;39;20028;-58
2021/05/05 01:04:52;;;;;;;6.43;4.75;;;;;;;;;;1493046;39;20035;-58
2021/05/05 01:05:52;;;;;;;5.70;4.13;;;;;;;;;;1492888;39;20028;-58
2021/05/05 01:06:54;;;;;;;6.50;4.38;;;;;;;;;;1493123;39;20031;-58
2021/05/05 01:07:55;;;;;;;6.13;4.05;;;;;;;;;;1492923;39;20038;-58
2021/05/05 01:08:57;;;;;;;7.53;4.40;;;;;;;;;;1492823;39;20028;-58
2021/05/05 01:09:57;;;;;;;5.95;4.50;;;;;;;;;;1493067;39;20031;-58
2021/05/05 01:11:00;;;;;;;6.85;4.07;;;;;;;;;;1492479;39;20054;-57
2021/05/05 01:12:01;;;;;;;5.95;4.38;;;;;;;;;;1492472;39;20484;-58
2021/05/05 01:13:02;;;;;;;7.72;4.57;;;;;;;;;;1492901;39;20121;-59
2021/05/05 01:14:04;;;;;;;6.85;4.40;;;;;;;;;;1492837;39;20391;-58
2021/05/05 01:15:06;;;;;;;6.40;4.40;;;;;;;;;;1492495;39;20039;-58
2021/05/05 01:16:07;;;;;;;7.40;4.53;;;;;;;;;;1492405;39;20387;-58
2021/05/05 01:17:09;;;;;;;6.30;4.13;;;;;;;;;;1492888;39;20400;-58
2021/05/05 01:18:10;;;;;;;6.20;4.15;;;;;;;;;;1493065;39;20028;-57
2021/05/05 01:19:11;;;;;;;6.97;4.70;;;;;;;;;;1492875;39;20032;-58
2021/05/05 01:20:14;;;;;;;6.70;4.40;;;;;;;;;;1493064;39;20030;-58
2021/05/05 01:21:17;;;;;;;4.85;4.13;;;;;;;;;;1492837;39;20028;-58
2021/05/05 01:22:18;;;;;;;6.32;4.32;;;;;;;;;;1492434;39;20152;-58
2021/05/05 01:23:20;;;;;;;7.63;4.88;;;;;;;;;;1492367;39;20035;-58
2021/05/05 01:24:20;;;;;;;8.73;5.13;;;;;;;;;;1492851;39;20032;-58
2021/05/05 01:25:22;;;;;;;8.55;4.90;;;;;;;;;;1493010;39;20038;-58
2021/05/05 01:26:23;;;;;;;7.32;4.88;;;;;;;;;;1492849;39;20410;-56
2021/05/05 01:27:24;;;;;;;8.85;4.75;;;;;;;;;;1493011;39;20032;-58
2021/05/05 01:28:26;;;;;;;8.82;5.07;;;;;;;;;;1493009;39;20105;-59
2021/05/05 01:29:27;;;;;;;7.95;4.65;;;;;;;;;;1492303;39;20028;-59
2021/05/05 01:30:29;;;;;;;6.85;5.03;;;;;;;;;;1492355;39;20029;-58
2021/05/05 01:31:45;;;;;;;6.82;5.43;;;;;;;;;;1492827;39;20380;-58
2021/05/05 01:32:46;;;;;;;7.93;5.55;;;;;;;;;;1492774;39;20126;-58
2021/05/05 01:33:47;;;;;;;8.73;5.05;;;;;;;;;;1492877;39;20114;-58
2021/05/05 01:34:48;;;;;;;7.63;5.57;;;;;;;;;;1492931;39;20034;-58
2021/05/05 01:35:51;;;;;;;9.15;5.60;;;;;;;;;;1492775;39;20291;-58
2021/05/05 01:36:52;;;;;;;7.70;6.22;;;;;;;;;;1492796;39;20460;-58
2021/05/05 01:37:54;;;;;;;9.98;5.97;;;;;;;;;;1492802;39;20032;-58
2021/05/05 01:38:55;;;;;;;8.63;5.20;;;;;;;;;;1492775;39;20343;-58
2021/05/05 01:39:56;;;;;;;9.43;5.65;;;;;;;;;;1492784;39;20031;-58
2021/05/05 01:40:57;;;;;;;10.02;6.07;;;;;;;;;;1492983;39;20032;-58
2021/05/05 01:41:59;;;;;;;8.50;6.03;;;;;;;;;;1492283;39;20032;-58
2021/05/05 01:43:03;;;;;;;10.13;6.38;;;;;;;;;;1492280;39;20312;-57
2021/05/05 01:44:05;;;;;;;9.07;5.70;;;;;;;;;;1492762;39;20042;-58
2021/05/05 01:45:07;;;;;;;9.63;5.88;;;;;;;;;;1492842;39;20353;-58
2021/05/05 01:46:09;;;;;;;7.63;5.95;;;;;;;;;;1492946;39;20040;-58
2021/05/05 01:47:12;;;;;;;8.10;5.47;;;;;;;;;;1492857;39;20085;-58
2021/05/05 01:48:15;;;;;;;7.80;5.55;;;;;;;;;;1492778;39;20038;-58
2021/05/05 01:49:20;;;;;;;9.93;5.88;;;;;;;;;;1492617;39;20044;-58
2021/05/05 01:50:22;;;;;;;8.10;6.05;;;;;;;;;;1493014;39;20035;-58
2021/05/05 01:51:23;;;;;;;8.50;5.90;;;;;;;;;;1492819;39;20479;-58
2021/05/05 01:52:25;;;;;;;9.10;5.85;;;;;;;;;;1492755;39;20071;-58
2021/05/05 01:53:26;;;;;;;11.90;6.63;;;;;;;;;;1493020;39;20058;-58
2021/05/05 01:54:27;;;;;;;9.20;6.10;;;;;;;;;;1492832;39;20019;-57
2021/05/05 01:55:28;;;;;;;8.98;6.43;;;;;;;;;;1492809;39;20023;-58
2021/05/05 01:56:30;;;;;;;7.68;6.03;;;;;;;;;;1492834;39;20028;-58
2021/05/05 01:57:38;;;;;;;8.30;6.00;;;;;;;;;;1492757;39;20028;-60
2021/05/05 01:58:39;;;;;;;11.10;6.28;;;;;;;;;;1492851;39;20036;-58
2021/05/05 01:59:40;;;;;;;6.85;5.45;;;;;;;;;;1492938;39;20035;-58
2021/05/05 02:00:41;;;;;;;10.30;6.18;;;;;;;;;;1492831;39;20299;-58
2021/05/05 02:01:42;;;;;;;9.02;6.00;;;;;;;;;;1492741;39;20445;-58
2021/05/05 02:02:44;;;;;;;10.02;6.35;;;;;;;;;;1492707;39;20031;-58
2021/05/05 02:03:45;;;;;;;9.13;6.10;;;;;;;;;;1492610;39;20028;-57
2021/05/05 02:04:47;;;;;;;10.18;6.43;;;;;;;;;;1492695;39;20032;-58
2021/05/05 02:05:48;;;;;;;8.38;5.80;;;;;;;;;;1492969;39;20028;-58
2021/05/05 02:06:49;;;;;;;7.75;6.18;;;;;;;;;;1492947;39;20287;-58
2021/05/05 02:07:51;;;;;;;9.25;6.28;;;;;;;;;;1492802;39;20100;-58
2021/05/05 02:08:53;;;;;;;9.93;6.30;;;;;;;;;;1492654;39;20035;-58
2021/05/05 02:09:54;;;;;;;10.02;6.57;;;;;;;;;;1492755;39;20380;-58
2021/05/05 02:10:55;;;;;;;10.80;6.72;;;;;;;;;;1492701;39;20035;-58
2021/05/05 02:11:56;;;;;;;9.88;6.32;;;;;;;;;;1492699;39;20032;-58
2021/05/05 02:12:57;;;;;;;10.70;6.70;;;;;;;;;;1492897;39;20372;-59
2021/05/05 02:13:58;;;;;;;11.68;6.40;;;;;;;;;;1492689;39;20049;-57
2021/05/05 02:14:59;;;;;;;10.85;6.40;;;;;;;;;;1492763;39;20032;-58
2021/05/05 02:16:02;;;;;;;8.80;6.55;;;;;;;;;;1492680;39;20035;-58
2021/05/05 02:17:04;;;;;;;10.48;6.82;;;;;;;;;;1492774;39;20129;-58
2021/05/05 02:18:09;;;;;;;10.38;6.47;;;;;;;;;;1492900;39;20068;-58
2021/05/05 02:19:14;;;;;;;10.27;6.57;;;;;;;;;;1492651;39;20391;-57
2021/05/05 02:20:17;;;;;;;12.73;6.50;;;;;;;;;;1492702;39;20053;-58
2021/05/05 02:21:18;;;;;;;10.15;6.13;;;;;;;;;;1492266;39;20031;-58
2021/05/05 02:22:19;;;;;;;9.73;6.45;;;;;;;;;;1492302;39;20292;-58
2021/05/05 02:23:21;;;;;;;10.15;6.78;;;;;;;;;;1492759;39;20066;-58
2021/05/05 02:24:22;;;;;;;10.52;6.28;;;;;;;;;;1492719;39;20020;-57
2021/05/05 02:25:23;;;;;;;10.13;6.40;;;;;;;;;;1492669;39;20464;-58
2021/05/05 02:26:24;;;;;;;7.75;5.97;;;;;;;;;;1492633;39;20028;-58
2021/05/05 02:27:28;;;;;;;10.18;6.45;;;;;;;;;;1492716;39;20056;-58
2021/05/05 02:28:30;;;;;;;9.15;6.75;;;;;;;;;;1492628;39;20384;-58
2021/05/05 02:29:32;;;;;;;9.48;6.75;;;;;;;;;;1492557;39;20407;-57
2021/05/05 02:30:32;;;;;;;9.20;6.85;;;;;;;;;;1492727;39;20082;-58
2021/05/05 02:31:34;;;;;;;8.63;6.10;;;;;;;;;;1492273;39;20024;-58
2021/05/05 02:32:36;;;;;;;9.73;6.60;;;;;;;;;;1492126;39;20027;-58
2021/05/05 02:33:37;;;;;;;9.35;6.50;;;;;;;;;;1492760;39;20040;-58
2021/05/05 02:34:38;;;;;;;10.73;6.70;;;;;;;;;;1492674;39;20027;-58
2021/05/05 02:35:40;;;;;;;13.35;7.03;;;;;;;;;;1492736;39;20406;-58
2021/05/05 02:36:41;;;;;;;8.23;6.63;;;;;;;;;;1492797;39;20034;-57
2021/05/05 02:37:44;;;;;;;12.48;6.80;;;;;;;;;;1492903;39;20032;-58
2021/05/05 02:38:45;;;;;;;9.07;6.50;;;;;;;;;;1492727;39;20153;-60
2021/05/05 02:39:46;;;;;;;11.35;6.60;;;;;;;;;;1492648;39;20028;-57
2021/05/05 02:40:48;;;;;;;9.68;6.90;;;;;;;;;;1492640;39;20034;-60
2021/05/05 02:41:49;;;;;;;9.07;5.95;;;;;;;;;;1492597;39;20388;-57
2021/05/05 02:42:50;;;;;;;8.63;6.25;;;;;;;;;;1492592;39;20051;-59
2021/05/05 02:43:51;;;;;;;10.30;6.82;;;;;;;;;;1492594;39;20035;-57
2021/05/05 02:44:53;;;;;;;11.05;6.82;;;;;;;;;;1492808;39;20028;-59
2021/05/05 02:45:54;;;;;;;9.55;6.75;;;;;;;;;;1492155;39;20423;-58
2021/05/05 02:46:55;;;;;;;10.15;6.72;;;;;;;;;;1487975;39;20036;-58
2021/05/05 02:47:56;;;;;;;10.35;6.68;;;;;;;;;;1492115;39;20112;-58
2021/05/05 02:48:57;;;;;;;8.55;6.07;;;;;;;;;;1492540;39;20047;-57
2021/05/05 02:49:59;;;;;;;9.25;6.25;;;;;;;;;;1492847;39;20035;-58
2021/05/05 02:51:00;;;;;;;8.93;5.97;;;;;;;;;;1492582;39;20025;-57
2021/05/05 02:52:02;;;;;;;9.45;6.45;;;;;;;;;;1492521;39;20027;-58
2021/05/05 02:53:04;;;;;;;8.88;6.53;;;;;;;;;;1492796;39;20034;-59
2021/05/05 02:54:07;;;;;;;10.35;6.72;;;;;;;;;;1492551;39;20295;-60
2021/05/05 02:55:10;;;;;;;8.63;6.68;;;;;;;;;;1492538;39;20302;-56
2021/05/05 02:56:11;;;;;;;10.20;6.80;;;;;;;;;;1492551;39;20032;-58
2021/05/05 02:57:12;;;;;;;9.38;6.47;;;;;;;;;;1492577;39;20111;-58
2021/05/05 02:58:13;;;;;;;10.55;6.32;;;;;;;;;;1492596;39;20040;-58
2021/05/05 02:59:14;;;;;;;8.23;6.25;;;;;;;;;;1492784;39;20042;-58
2021/05/05 03:00:17;;;;;;;10.00;6.93;;;;;;;;;;1492740;39;20057;-57
2021/05/05 03:01:17;;;;;;;9.88;6.93;;;;;;;;;;1492553;39;20145;-59
2021/05/05 03:02:19;;;;;;;9.57;6.45;;;;;;;;;;1492594;39;20129;-59
2021/05/05 03:03:19;;;;;;;9.40;6.00;;;;;;;;;;1492550;39;20284;-59
2021/05/05 03:04:21;;;;;;;9.43;6.22;;;;;;;;;;1492552;39;20031;-59
2021/05/05 03:05:22;;;;;;;8.60;6.28;;;;;;;;;;1492789;39;20023;-59
2021/05/05 03:06:23;;;;;;;9.52;6.43;;;;;;;;;;1492564;39;20027;-59
2021/05/05 03:07:24;;;;;;;9.77;6.78;;;;;;;;;;1492761;39;20035;-61
2021/05/05 03:08:25;;;;;;;12.25;6.75;;;;;;;;;;1492736;39;20307;-61
2021/05/05 03:09:27;;;;;;;10.57;6.60;;;;;;;;;;1492383;39;20292;-61
2021/05/05 03:10:29;;;;;;;9.02;6.70;;;;;;;;;;1492761;39;20042;-62
2021/05/05 03:11:30;;;;;;;9.80;6.82;;;;;;;;;;1492589;39;20024;-64
2021/05/05 03:12:31;;;;;;;9.00;6.32;;;;;;;;;;1492532;39;20123;-62
2021/05/05 03:13:32;;;;;;;9.80;6.53;;;;;;;;;;1492509;39;20307;-62
2021/05/05 03:14:33;;;;;;;9.77;6.30;;;;;;;;;;1492533;39;20024;-62
2021/05/05 03:15:34;;;;;;;9.50;6.47;;;;;;;;;;1492658;39;20043;-62
2021/05/05 03:16:35;;;;;;;11.02;6.43;;;;;;;;;;1493239;39;20039;-62
2021/05/05 03:17:37;;;;;;;11.23;7.05;;;;;;;;;;1493183;39;20395;-62
2021/05/05 03:18:39;;;;;;;10.63;6.60;;;;;;;;;;1493292;39;20031;-62
2021/05/05 03:19:40;;;;;;;11.20;6.93;;;;;;;;;;1492750;39;20032;-62
2021/05/05 03:20:41;;;;;;;12.32;6.93;;;;;;;;;;1492711;39;20028;-62
2021/05/05 03:21:43;;;;;;;10.40;6.95;;;;;;;;;;1493358;39;20108;-62
2021/05/05 03:22:44;;;;;;;13.82;7.13;;;;;;;;;;1493474;39;20031;-62
2021/05/05 03:23:45;;;;;;;8.45;6.57;;;;;;;;;;1493387;39;20024;-63
2021/05/05 03:24:47;;;;;;;9.77;6.00;;;;;;;;;;1493216;39;20306;-63
2021/05/05 03:25:48;;;;;;;11.23;6.43;;;;;;;;;;1493152;39;20303;-62
2021/05/05 03:26:49;;;;;;;9.50;6.60;;;;;;;;;;1493159;39;20042;-62
2021/05/05 03:27:50;;;;;;;10.48;6.63;;;;;;;;;;1493136;39;20392;-62
2021/05/05 03:28:51;;;;;;;10.70;6.45;;;;;;;;;;1493309;39;20028;-62
2021/05/05 03:29:52;;;;;;;9.10;6.68;;;;;;;;;;1493116;39;20376;-62
2021/05/05 03:30:54;;;;;;;11.15;6.80;;;;;;;;;;1493158;39;20081;-63
2021/05/05 03:31:56;;;;;;;8.93;6.50;;;;;;;;;;1493121;39;20045;-62
2021/05/05 03:32:58;;;;;;;8.20;6.28;;;;;;;;;;1493126;39;20032;-63
2021/05/05 03:33:59;;;;;;;11.93;6.47;;;;;;;;;;1492767;39;20044;-62
2021/05/05 03:35:00;;;;;;;10.60;6.82;;;;;;;;;;1492805;39;20027;-63
2021/05/05 03:36:01;;;;;;;9.82;6.65;;;;;;;;;;1493157;39;20040;-62
2021/05/05 03:37:03;;;;;;;8.80;6.53;;;;;;;;;;1493118;39;20036;-64
2021/05/05 03:38:04;;;;;;;10.48;6.65;;;;;;;;;;1493144;39;20037;-62
2021/05/05 03:39:06;;;;;;;9.52;6.75;;;;;;;;;;1493326;39;20031;-62
2021/05/05 03:40:10;;;;;;;10.30;6.88;;;;;;;;;;1493212;39;20384;-62
2021/05/05 03:41:11;;;;;;;10.32;6.18;;;;;;;;;;1493217;39;20394;-62
2021/05/05 03:42:12;;;;;;;8.80;6.32;;;;;;;;;;1493109;39;20027;-64
2021/05/05 03:43:13;;;;;;;7.97;6.15;;;;;;;;;;1493389;39;20032;-63
2021/05/05 03:44:15;;;;;;;8.07;6.28;;;;;;;;;;1493174;39;20401;-63
2021/05/05 03:45:16;;;;;;;9.05;6.55;;;;;;;;;;1493268;39;20038;-63
2021/05/05 03:46:17;;;;;;;9.82;6.88;;;;;;;;;;1493260;39;20027;-62
2021/05/05 03:47:18;;;;;;;9.40;6.63;;;;;;;;;;1493346;39;20291;-62
2021/05/05 03:48:22;;;;;;;10.15;6.68;;;;;;;;;;1493157;39;20036;-62
2021/05/05 03:49:24;;;;;;;11.27;7.00;;;;;;;;;;1493180;39;20057;-62
2021/05/05 03:50:25;;;;;;;11.95;7.20;;;;;;;;;;1493392;39;20023;-63
2021/05/05 03:51:27;;;;;;;9.23;6.78;;;;;;;;;;1493112;39;20299;-63
2021/05/05 03:52:27;;;;;;;10.27;7.18;;;;;;;;;;1493335;39;20078;-62
2021/05/05 03:53:29;;;;;;;10.45;6.60;;;;;;;;;;1493185;39;20032;-62
2021/05/05 03:54:30;;;;;;;11.93;6.35;;;;;;;;;;1493123;39;20028;-63
2021/05/05 03:55:32;;;;;;;10.98;6.70;;;;;;;;;;1493306;39;20031;-63
2021/05/05 03:56:33;;;;;;;9.10;7.05;;;;;;;;;;1493057;39;20023;-63
2021/05/05 03:57:34;;;;;;;9.30;6.03;;;;;;;;;;1493071;39;20032;-62
2021/05/05 03:58:35;;;;;;;8.73;6.10;;;;;;;;;;1493132;39;20291;-62
2021/05/05 03:59:36;;;;;;;11.00;6.85;;;;;;;;;;1493112;39;20035;-62
2021/05/05 04:00:37;;;;;;;9.48;6.68;;;;;;;;;;1493318;39;20028;-61
2021/05/05 04:01:38;;;;;;;11.10;7.13;;;;;;;;;;1493293;39;20317;-59
2021/05/05 04:02:39;;;;;;;9.38;6.38;;;;;;;;;;1493055;39;20024;-60
2021/05/05 04:03:41;;;;;;;13.70;7.15;;;;;;;;;;1493258;39;20028;-59
2021/05/05 04:04:41;;;;;;;11.63;7.18;;;;;;;;;;1493152;39;20027;-58
2021/05/05 04:05:43;;;;;;;8.95;6.68;;;;;;;;;;1493095;39;20387;-58
2021/05/05 04:06:44;;;;;;;11.10;6.95;;;;;;;;;;1493060;39;20480;-59
2021/05/05 04:07:45;;;;;;;11.52;7.53;;;;;;;;;;1493087;39;20028;-58
2021/05/05 04:08:46;;;;;;;10.93;7.20;;;;;;;;;;1493272;39;20035;-58
2021/05/05 04:09:47;;;;;;;9.85;7.05;;;;;;;;;;1493170;39;20293;-59
2021/05/05 04:10:49;;;;;;;12.35;6.88;;;;;;;;;;1493038;39;20028;-59
2021/05/05 04:11:50;;;;;;;10.15;7.20;;;;;;;;;;1493226;39;20119;-59
2021/05/05 04:12:51;;;;;;;10.75;6.82;;;;;;;;;;1493028;39;20036;-59
2021/05/05 04:13:53;;;;;;;13.77;7.90;;;;;;;;;;1493194;39;20038;-58
2021/05/05 04:14:54;;;;;;;14.98;8.10;;;;;;;;;;1493103;39;20032;-59
2021/05/05 04:15:55;;;;;;;11.25;7.50;;;;;;;;;;1493224;39;20027;-59
2021/05/05 04:16:56;;;;;;;11.20;7.35;;;;;;;;;;1493103;39;20476;-59
2021/05/05 04:17:58;;;;;;;11.45;7.60;;;;;;;;;;1493007;39;20082;-58
2021/05/05 04:18:59;;;;;;;11.80;8.15;;;;;;;;;;1493151;39;20035;-59
2021/05/05 04:20:00;;;;;;;12.35;7.78;;;;;;;;;;1493041;39;20035;-59
2021/05/05 04:21:03;;;;;;;10.85;7.15;;;;;;;;;;1493111;39;20028;-59
2021/05/05 04:22:04;;;;;;;8.55;6.20;;;;;;;;;;1493005;39;20331;-59
2021/05/05 04:23:06;;;;;;;8.40;4.75;;;;;;;;;;1493036;39;20046;-59
2021/05/05 04:24:08;;;;;;;8.30;5.25;;;;;;;;;;1493149;39;20027;-59
2021/05/05 04:25:10;;;;;;;7.22;4.25;;;;;;;;;;1492994;39;20391;-59
2021/05/05 04:26:12;;;;;;;5.25;3.40;;;;;;;;;;1493021;39;20369;-59
2021/05/05 04:27:14;;;;;;;5.88;2.45;;;;;;;;;;1492979;39;20023;-59
2021/05/05 04:28:15;;;;;;;4.40;2.50;;;;;;;;;;1493203;39;20040;-59
2021/05/05 04:29:18;;;;;;;3.20;2.05;;;;;;;;;;1493070;39;20062;-60
2021/05/05 04:30:19;;;;;;;4.90;1.92;;;;;;;;;;1493008;39;20404;-59
2021/05/05 04:31:21;;;;;;;3.03;1.85;;;;;;;;;;1493249;39;20028;-59
2021/05/05 04:32:23;;;;;;;5.00;2.28;;;;;;;;;;1493038;39;20023;-58
2021/05/05 04:33:24;;;;;;;5.10;1.95;;;;;;;;;;1493151;39;20034;-58
2021/05/05 04:34:25;;;;;;;3.72;1.80;;;;;;;;;;1493163;39;20024;-59
2021/05/05 04:35:27;;;;;;;4.22;2.10;;;;;;;;;;1493187;39;20028;-59
2021/05/05 04:36:27;;;;;;;3.55;1.90;;;;;;;;;;1492525;39;20027;-58
2021/05/05 04:37:29;;;;;;;3.00;1.60;;;;;;;;;;1492771;39;20024;-59
2021/05/05 04:38:30;;;;;;;3.10;1.52;;;;;;;;;;1493186;39;20023;-59
2021/05/05 04:39:31;;;;;;;3.97;2.03;;;;;;;;;;1492530;39;20315;-59
2021/05/05 04:40:32;;;;;;;3.00;1.80;;;;;;;;;;1492525;39;20038;-59
2021/05/05 04:41:34;;;;;;;5.07;2.03;;;;;;;;;;1492968;39;20035;-59
2021/05/05 04:42:36;;;;;;;3.35;1.70;;;;;;;;;;1492485;39;20028;-59
2021/05/05 04:43:37;;;;;;;3.65;1.90;;;;;;;;;;1492508;39;20036;-59
2021/05/05 04:44:38;;;;;;;2.80;1.60;;;;;;;;;;1492961;39;20054;-59
2021/05/05 04:45:40;;;;;;;4.47;1.70;;;;;;;;;;1492976;39;20028;-59
2021/05/05 04:46:41;;;;;;;2.80;1.60;;;;;;;;;;1493202;39;20028;-59
2021/05/05 04:47:42;;;;;;;3.72;1.70;;;;;;;;;;1493009;39;20035;-59
2021/05/05 04:48:43;;;;;;;2.35;1.55;;;;;;;;;;1493120;39;20031;-60
2021/05/05 04:49:44;;;;;;;5.15;1.55;;;;;;;;;;1493134;39;20032;-59
2021/05/05 04:50:45;;;;;;;4.05;1.60;;;;;;;;;;1492968;39;20391;-59
2021/05/05 04:51:46;;;;;;;3.40;1.70;;;;;;;;;;1493182;39;20032;-59
2021/05/05 04:52:47;;;;;;;6.43;1.92;;;;;;;;;;1492941;39;20023;-59
2021/05/05 04:53:48;;;;;;;2.70;1.70;;;;;;;;;;1493140;39;20028;-59
2021/05/05 04:54:49;;;;;;;4.05;1.80;;;;;;;;;;1492978;39;20028;-59
2021/05/05 04:55:51;;;;;;;4.60;1.80;;;;;;;;;;1492954;39;20028;-59
2021/05/05 04:56:53;;;;;;;3.65;1.63;;;;;;;;;;1493111;39;20040;-59
2021/05/05 04:57:54;;;;;;;4.53;1.70;;;;;;;;;;1493008;39;20050;-59
2021/05/05 04:58:55;;;;;;;5.10;2.00;;;;;;;;;;1492872;39;20295;-59
2021/05/05 04:59:56;;;;;;;5.75;1.80;;;;;;;;;;1493143;39;20032;-59
2021/05/05 05:00:57;;;;;;;3.85;1.67;;;;;;;;;;1492925;39;20108;-59
2021/05/05 05:01:58;;;;;;;4.47;1.77;;;;;;;;;;1492997;39;20032;-59
2021/05/05 05:02:59;;;;;;;4.13;1.52;;;;;;;;;;1493119;39;20030;-58
2021/05/05 05:04:01;;;;;;;3.47;2.03;;;;;;;;;;1492917;39;20338;-59
2021/05/05 05:05:04;;;;;;;4.75;1.90;;;;;;;;;;1493187;39;20088;-59
2021/05/05 05:06:05;;;;;;;4.55;2.13;;;;;;;;;;1492848;39;20032;-59
2021/05/05 05:07:06;;;;;;;3.58;2.05;;;;;;;;;;1493069;39;20036;-59
2021/05/05 05:08:08;;;;;;;4.43;2.13;;;;;;;;;;1492903;39;20383;-59
2021/05/05 05:09:08;;;;;;;5.55;2.70;;;;;;;;;;1493013;39;20105;-59
2021/05/05 05:10:11;;;;;;;6.00;2.47;;;;;;;;;;1492957;39;20384;-58
2021/05/05 05:11:12;;;;;;;4.53;2.33;;;;;;;;;;1493087;39;20028;-59
2021/05/05 05:12:14;;;;;;;5.57;2.60;;;;;;;;;;1493115;39;20410;-59
2021/05/05 05:13:15;;;;;;;4.93;2.33;;;;;;;;;;1492885;39;20299;-60
2021/05/05 05:14:16;;;;;;;4.07;1.83;;;;;;;;;;1493107;39;20028;-59
2021/05/05 05:15:17;;;;;;;4.55;2.20;;;;;;;;;;1492910;39;20295;-59
2021/05/05 05:16:18;;;;;;;4.70;2.35;;;;;;;;;;1492913;39;20031;-58
2021/05/05 05:17:20;;;;;;;6.40;2.20;;;;;;;;;;1493079;39;20031;-59
2021/05/05 05:18:21;;;;;;;4.32;2.10;;;;;;;;;;1493071;39;20024;-59
2021/05/05 05:19:22;;;;;;;5.65;2.40;;;;;;;;;;1492834;39;20039;-59
2021/05/05 05:20:23;;;;;;;3.30;1.80;;;;;;;;;;1492909;39;20030;-59
2021/05/05 05:21:24;;;;;;;4.65;1.80;;;;;;;;;;1492978;39;20024;-59
2021/05/05 05:22:26;;;;;;;3.72;1.40;;;;;;;;;;1492974;39;20020;-59
2021/05/05 05:23:27;;;;;;;4.35;1.50;;;;;;;;;;1492905;39;20040;-59
2021/05/05 05:24:28;;;;;;;4.20;1.50;;;;;;;;;;1492918;39;20081;-59
2021/05/05 05:25:29;;;;;;;3.38;1.70;;;;;;;;;;1493101;39;20032;-59
2021/05/05 05:26:30;;;;;;;2.85;1.00;;;;;;;;;;1492396;39;20105;-59
2021/05/05 05:27:32;;;;;;;4.22;1.13;;;;;;;;;;1492392;39;20036;-59
2021/05/05 05:28:34;;;;;;;4.60;1.40;;;;;;;;;;1492881;39;20035;-59
2021/05/05 05:29:34;;;;;;;2.72;1.05;;;;;;;;;;1492745;39;20039;-59
2021/05/05 05:30:36;;;;;;;1.70;0.90;;;;;;;;;;1493035;39;20036;-59
2021/05/05 05:31:37;;;;;;;5.50;1.00;;;;;;;;;;1493031;39;20058;-59
2021/05/05 05:32:38;;;;;;;2.45;1.35;;;;;;;;;;1492971;39;20059;-59
2021/05/05 05:33:39;;;;;;;3.15;1.00;;;;;;;;;;1493045;39;20036;-59
2021/05/05 05:34:40;;;;;;;2.53;1.02;;;;;;;;;;1492850;39;20361;-59
2021/05/05 05:35:41;;;;;;;2.78;1.00;;;;;;;;;;1493044;39;20024;-59
2021/05/05 05:36:43;;;;;;;5.25;1.38;;;;;;;;;;1492959;39;20291;-59
2021/05/05 05:37:44;;;;;;;4.88;1.10;;;;;;;;;;1493106;39;20058;-59
2021/05/05 05:38:45;;;;;;;3.20;1.10;;;;;;;;;;1492521;39;20035;-60
2021/05/05 05:39:46;;;;;;;4.07;1.20;;;;;;;;;;1492867;39;20024;-59
2021/05/05 05:40:47;;;;;;;5.63;1.17;;;;;;;;;;1493134;39;20032;-59
2021/05/05 05:41:48;;;;;;;3.08;1.10;;;;;;;;;;1492992;39;20031;-59
2021/05/05 05:42:50;;;;;;;3.03;1.00;;;;;;;;;;1492910;39;20117;-60
2021/05/05 05:43:51;;;;;;;3.55;1.00;;;;;;;;;;1493109;39;20031;-59
2021/05/05 05:44:52;;;;;;;4.93;1.10;;;;;;;;;;1492936;39;20028;-59
2021/05/05 05:45:53;;;;;;;3.08;1.00;;;;;;;;;;1492428;39;20034;-58
2021/05/05 05:46:55;;;;;;;4.78;1.15;;;;;;;;;;1492321;39;20359;-59
2021/05/05 05:47:55;;;;;;;2.13;0.90;;;;;;;;;;1491715;39;20081;-58
2021/05/05 05:48:57;;;;;;;1.90;1.05;;;;;;;;;;1491455;39;20407;-59
2021/05/05 05:49:58;;;;;;;3.28;1.38;;;;;;;;;;1492460;39;20031;-59
2021/05/05 05:51:00;;;;;;;2.65;1.00;;;;;;;;;;1492507;39;20031;-60
2021/05/05 05:52:00;;;;;;;1.70;0.90;;;;;;;;;;1492922;39;20024;-59
2021/05/05 05:53:02;;;;;;;3.80;1.08;;;;;;;;;;1492797;39;20374;-58
2021/05/05 05:54:04;;;;;;;3.15;1.00;;;;;;;;;;1492076;39;20045;-60
2021/05/05 05:55:07;;;;;;;7.60;2.10;;;;;;;;;;1491700;39;20264;-59
2021/05/05 05:56:08;;;;;;;3.05;0.95;;;;;;;;;;1492335;39;20084;-60
2021/05/05 05:57:10;;;;;;;2.20;0.95;;;;;;;;;;1492183;39;20097;-60
2021/05/05 05:58:12;;;;;;;2.75;1.00;;;;;;;;;;1492215;39;20035;-60
2021/05/05 05:59:13;;;;;;;3.85;1.13;;;;;;;;;;1492319;39;20105;-60
2021/05/05 06:00:17;;;;;;;2.58;1.08;;;;;;;;;;1492181;39;20028;-61
2021/05/05 06:01:18;;;;;;;4.90;1.00;;;;;;;;;;1492872;39;20141;-59
2021/05/05 06:02:19;;;;;;;3.90;1.00;;;;;;;;;;1492752;39;20031;-59
2021/05/05 06:03:21;;;;;;;4.85;1.10;;;;;;;;;;1492986;39;20392;-59
2021/05/05 06:04:22;;;;;;;2.55;0.80;;;;;;;;;;1492872;39;20404;-59
2021/05/05 06:05:23;;;;;;;3.10;0.98;;;;;;;;;;1492778;39;20024;-59
2021/05/05 06:06:24;;;;;;;2.33;1.00;;;;;;;;;;1492465;39;20043;-59
2021/05/05 06:07:25;;;;;;;2.75;1.45;;;;;;;;;;1492287;39;20054;-59